sensor_id;sensor_type;location;lat;lon;timestamp;P1;durP1;ratioP1;P2;durP2;ratioP2
9972;SDS011;5027;53.560;10.062;2023-05-13T00:00:17;5.30;;;4.50;;
9972;SDS011;5027;53.560;10.062;2023-05-13T00:02:44;5.20;;;3.50;;
9972;SDS011;5027;53.560;10.062;2023-05-13T00:05:11;3.23;;;2.93;;
9972;SDS011;5027;53.560;10.062;2023-05-13T00:07:38;2.90;;;2.70;;
9972;SDS011;5027;53.560;10.062;2023-05-13T00:10:06;7.43;;;4.80;;
9972;SDS011;5027;53.560;10.062;2023-05-13T00:12:33;5.97;;;3.93;;
9972;SDS011;5027;53.560;10.062;2023-05-13T00:15:00;3.17;;;2.80;;
9972;SDS011;5027;53.560;10.062;2023-05-13T00:17:27;3.70;;;3.40;;
9972;SDS011;5027;53.560;10.062;2023-05-13T00:19:53;3.37;;;3.10;;
9972;SDS011;5027;53.560;10.062;2023-05-13T00:22:20;3.97;;;3.40;;
9972;SDS011;5027;53.560;10.062;2023-05-13T00:24:46;3.17;;;2.97;;
9972;SDS011;5027;53.560;10.062;2023-05-13T00:27:13;5.73;;;3.40;;
9972;SDS011;5027;53.560;10.062;2023-05-13T00:29:40;10.27;;;4.83;;
9972;SDS011;5027;53.560;10.062;2023-05-13T00:32:06;3.73;;;3.43;;
9972;SDS011;5027;53.560;10.062;2023-05-13T00:34:33;8.90;;;5.80;;
9972;SDS011;5027;53.560;10.062;2023-05-13T00:37:00;4.23;;;3.70;;
9972;SDS011;5027;53.560;10.062;2023-05-13T00:39:28;8.17;;;5.17;;
9972;SDS011;5027;53.560;10.062;2023-05-13T00:41:54;4.33;;;3.57;;
9972;SDS011;5027;53.560;10.062;2023-05-13T00:44:21;3.00;;;2.80;;
9972;SDS011;5027;53.560;10.062;2023-05-13T00:46:48;3.20;;;3.00;;
9972;SDS011;5027;53.560;10.062;2023-05-13T00:49:15;3.07;;;2.83;;
9972;SDS011;5027;53.560;10.062;2023-05-13T00:51:41;3.77;;;3.47;;
9972;SDS011;5027;53.560;10.062;2023-05-13T00:54:09;9.70;;;5.47;;
9972;SDS011;5027;53.560;10.062;2023-05-13T00:56:36;6.67;;;4.90;;
9972;SDS011;5027;53.560;10.062;2023-05-13T00:59:04;3.87;;;3.57;;
9972;SDS011;5027;53.560;10.062;2023-05-13T01:01:43;6.27;;;4.90;;
9972;SDS011;5027;53.560;10.062;2023-05-13T01:12:47;3.60;;;3.30;;
9972;SDS011;5027;53.560;10.062;2023-05-13T01:15:22;8.60;;;5.10;;
9972;SDS011;5027;53.560;10.062;2023-05-13T01:17:54;5.30;;;3.97;;
9972;SDS011;5027;53.560;10.062;2023-05-13T01:20:32;12.17;;;5.23;;
9972;SDS011;5027;53.560;10.062;2023-05-13T01:22:59;7.17;;;5.37;;
9972;SDS011;5027;53.560;10.062;2023-05-13T01:25:26;3.70;;;3.40;;
9972;SDS011;5027;53.560;10.062;2023-05-13T01:27:53;7.57;;;4.77;;
9972;SDS011;5027;53.560;10.062;2023-05-13T01:30:21;8.17;;;5.67;;
9972;SDS011;5027;53.560;10.062;2023-05-13T01:32:49;4.83;;;3.43;;
9972;SDS011;5027;53.560;10.062;2023-05-13T01:35:17;5.13;;;4.63;;
9972;SDS011;5027;53.560;10.062;2023-05-13T01:37:45;5.90;;;5.30;;
9972;SDS011;5027;53.560;10.062;2023-05-13T01:40:13;3.77;;;3.40;;
9972;SDS011;5027;53.560;10.062;2023-05-13T01:42:59;5.00;;;3.27;;
9972;SDS011;5027;53.560;10.062;2023-05-13T01:45:27;5.43;;;4.63;;
9972;SDS011;5027;53.560;10.062;2023-05-13T01:47:55;8.50;;;5.77;;
9972;SDS011;5027;53.560;10.062;2023-05-13T01:50:23;9.17;;;6.37;;
9972;SDS011;5027;53.560;10.062;2023-05-13T01:52:50;13.53;;;6.50;;
9972;SDS011;5027;53.560;10.062;2023-05-13T01:55:17;7.50;;;6.37;;
9972;SDS011;5027;53.560;10.062;2023-05-13T01:57:46;9.33;;;6.30;;
9972;SDS011;5027;53.560;10.062;2023-05-13T02:00:13;9.30;;;6.20;;
9972;SDS011;5027;53.560;10.062;2023-05-13T02:02:40;9.33;;;6.13;;
9972;SDS011;5027;53.560;10.062;2023-05-13T02:05:07;6.77;;;6.03;;
9972;SDS011;5027;53.560;10.062;2023-05-13T02:07:35;10.77;;;6.77;;
9972;SDS011;5027;53.560;10.062;2023-05-13T02:10:02;10.63;;;6.60;;
9972;SDS011;5027;53.560;10.062;2023-05-13T02:12:30;10.17;;;6.37;;
9972;SDS011;5027;53.560;10.062;2023-05-13T02:14:57;10.13;;;6.10;;
9972;SDS011;5027;53.560;10.062;2023-05-13T02:17:24;7.87;;;6.20;;
9972;SDS011;5027;53.560;10.062;2023-05-13T02:19:51;7.87;;;6.27;;
9972;SDS011;5027;53.560;10.062;2023-05-13T02:22:18;11.47;;;6.50;;
9972;SDS011;5027;53.560;10.062;2023-05-13T02:24:45;8.10;;;6.10;;
9972;SDS011;5027;53.560;10.062;2023-05-13T02:27:11;10.77;;;7.07;;
9972;SDS011;5027;53.560;10.062;2023-05-13T02:29:41;11.13;;;6.73;;
9972;SDS011;5027;53.560;10.062;2023-05-13T02:32:08;8.67;;;7.00;;
9972;SDS011;5027;53.560;10.062;2023-05-13T02:34:35;8.70;;;7.07;;
9972;SDS011;5027;53.560;10.062;2023-05-13T02:37:02;9.80;;;7.13;;
9972;SDS011;5027;53.560;10.062;2023-05-13T02:39:29;10.63;;;6.57;;
9972;SDS011;5027;53.560;10.062;2023-05-13T02:41:57;9.90;;;7.43;;
9972;SDS011;5027;53.560;10.062;2023-05-13T02:44:29;11.03;;;8.00;;
9972;SDS011;5027;53.560;10.062;2023-05-13T02:46:56;10.57;;;6.93;;
9972;SDS011;5027;53.560;10.062;2023-05-13T02:49:23;9.13;;;7.60;;
9972;SDS011;5027;53.560;10.062;2023-05-13T02:51:50;7.40;;;6.70;;
9972;SDS011;5027;53.560;10.062;2023-05-13T02:54:20;8.83;;;7.53;;
9972;SDS011;5027;53.560;10.062;2023-05-13T02:56:47;12.03;;;7.83;;
9972;SDS011;5027;53.560;10.062;2023-05-13T02:59:14;18.63;;;8.20;;
9972;SDS011;5027;53.560;10.062;2023-05-13T03:01:40;13.50;;;7.27;;
9972;SDS011;5027;53.560;10.062;2023-05-13T03:04:08;14.47;;;7.73;;
9972;SDS011;5027;53.560;10.062;2023-05-13T03:06:34;9.80;;;7.37;;
9972;SDS011;5027;53.560;10.062;2023-05-13T03:09:01;8.00;;;7.13;;
9972;SDS011;5027;53.560;10.062;2023-05-13T03:11:28;8.47;;;7.13;;
9972;SDS011;5027;53.560;10.062;2023-05-13T03:13:54;10.73;;;7.50;;
9972;SDS011;5027;53.560;10.062;2023-05-13T03:16:21;9.80;;;7.43;;
9972;SDS011;5027;53.560;10.062;2023-05-13T03:18:47;13.63;;;7.63;;
9972;SDS011;5027;53.560;10.062;2023-05-13T03:21:18;8.00;;;7.20;;
9972;SDS011;5027;53.560;10.062;2023-05-13T03:23:45;14.60;;;8.47;;
9972;SDS011;5027;53.560;10.062;2023-05-13T03:26:12;10.87;;;8.47;;
9972;SDS011;5027;53.560;10.062;2023-05-13T03:28:38;14.07;;;7.63;;
9972;SDS011;5027;53.560;10.062;2023-05-13T03:31:05;12.63;;;8.20;;
9972;SDS011;5027;53.560;10.062;2023-05-13T03:33:36;8.83;;;7.40;;
9972;SDS011;5027;53.560;10.062;2023-05-13T03:36:03;8.53;;;7.63;;
9972;SDS011;5027;53.560;10.062;2023-05-13T03:38:31;9.97;;;7.37;;
9972;SDS011;5027;53.560;10.062;2023-05-13T03:40:57;10.17;;;7.80;;
9972;SDS011;5027;53.560;10.062;2023-05-13T03:43:24;12.17;;;7.70;;
9972;SDS011;5027;53.560;10.062;2023-05-13T03:45:56;9.13;;;7.63;;
9972;SDS011;5027;53.560;10.062;2023-05-13T03:48:24;8.70;;;7.90;;
9972;SDS011;5027;53.560;10.062;2023-05-13T03:50:53;10.53;;;7.53;;
9972;SDS011;5027;53.560;10.062;2023-05-13T03:53:20;8.40;;;7.50;;
9972;SDS011;5027;53.560;10.062;2023-05-13T03:55:47;10.43;;;7.90;;
9972;SDS011;5027;53.560;10.062;2023-05-13T03:58:14;12.13;;;7.67;;
9972;SDS011;5027;53.560;10.062;2023-05-13T04:00:42;11.57;;;8.03;;
9972;SDS011;5027;53.560;10.062;2023-05-13T04:03:12;12.23;;;8.67;;
9972;SDS011;5027;53.560;10.062;2023-05-13T04:05:43;10.30;;;7.70;;
9972;SDS011;5027;53.560;10.062;2023-05-13T04:08:14;10.53;;;7.70;;
9972;SDS011;5027;53.560;10.062;2023-05-13T04:10:41;10.83;;;8.53;;
9972;SDS011;5027;53.560;10.062;2023-05-13T04:13:08;9.97;;;7.97;;
9972;SDS011;5027;53.560;10.062;2023-05-13T04:15:34;9.60;;;8.50;;
9972;SDS011;5027;53.560;10.062;2023-05-13T04:18:03;10.20;;;7.70;;
9972;SDS011;5027;53.560;10.062;2023-05-13T04:20:30;12.30;;;8.13;;
9972;SDS011;5027;53.560;10.062;2023-05-13T04:22:57;8.80;;;7.90;;
9972;SDS011;5027;53.560;10.062;2023-05-13T04:25:24;10.07;;;8.33;;
9972;SDS011;5027;53.560;10.062;2023-05-13T04:27:51;8.97;;;8.03;;
9972;SDS011;5027;53.560;10.062;2023-05-13T04:30:24;10.63;;;7.90;;
9972;SDS011;5027;53.560;10.062;2023-05-13T04:32:51;8.83;;;7.60;;
9972;SDS011;5027;53.560;10.062;2023-05-13T04:35:18;10.97;;;8.23;;
9972;SDS011;5027;53.560;10.062;2023-05-13T04:37:50;8.27;;;7.00;;
9972;SDS011;5027;53.560;10.062;2023-05-13T04:40:18;12.47;;;8.57;;
9972;SDS011;5027;53.560;10.062;2023-05-13T04:42:46;10.27;;;9.20;;
9972;SDS011;5027;53.560;10.062;2023-05-13T04:45:23;13.63;;;8.67;;
9972;SDS011;5027;53.560;10.062;2023-05-13T04:47:49;11.03;;;8.40;;
9972;SDS011;5027;53.560;10.062;2023-05-13T04:50:16;12.90;;;8.33;;
9972;SDS011;5027;53.560;10.062;2023-05-13T04:52:43;9.47;;;8.00;;
9972;SDS011;5027;53.560;10.062;2023-05-13T04:55:13;10.53;;;9.43;;
9972;SDS011;5027;53.560;10.062;2023-05-13T04:57:40;8.70;;;7.47;;
9972;SDS011;5027;53.560;10.062;2023-05-13T05:00:07;9.93;;;8.20;;
9972;SDS011;5027;53.560;10.062;2023-05-13T05:02:37;9.60;;;8.10;;
9972;SDS011;5027;53.560;10.062;2023-05-13T05:05:04;10.53;;;7.93;;
9972;SDS011;5027;53.560;10.062;2023-05-13T05:07:32;14.20;;;8.90;;
9972;SDS011;5027;53.560;10.062;2023-05-13T05:09:59;13.50;;;8.43;;
9972;SDS011;5027;53.560;10.062;2023-05-13T05:12:28;9.53;;;8.20;;
9972;SDS011;5027;53.560;10.062;2023-05-13T05:14:56;7.73;;;7.03;;
9972;SDS011;5027;53.560;10.062;2023-05-13T05:17:23;11.17;;;7.43;;
9972;SDS011;5027;53.560;10.062;2023-05-13T05:19:49;13.10;;;7.37;;
9972;SDS011;5027;53.560;10.062;2023-05-13T05:22:16;9.10;;;8.03;;
9972;SDS011;5027;53.560;10.062;2023-05-13T05:24:44;5.23;;;3.87;;
9972;SDS011;5027;53.560;10.062;2023-05-13T05:27:12;9.47;;;7.63;;
9972;SDS011;5027;53.560;10.062;2023-05-13T05:29:39;14.60;;;8.00;;
9972;SDS011;5027;53.560;10.062;2023-05-13T05:32:06;9.57;;;7.83;;
9972;SDS011;5027;53.560;10.062;2023-05-13T05:34:33;9.00;;;6.63;;
9972;SDS011;5027;53.560;10.062;2023-05-13T05:37:00;11.80;;;8.10;;
9972;SDS011;5027;53.560;10.062;2023-05-13T05:39:27;13.67;;;7.87;;
9972;SDS011;5027;53.560;10.062;2023-05-13T05:41:53;11.83;;;7.33;;
9972;SDS011;5027;53.560;10.062;2023-05-13T05:44:20;14.40;;;8.03;;
9972;SDS011;5027;53.560;10.062;2023-05-13T05:46:47;6.47;;;5.37;;
9972;SDS011;5027;53.560;10.062;2023-05-13T05:49:15;9.07;;;5.40;;
9972;SDS011;5027;53.560;10.062;2023-05-13T05:51:42;9.47;;;7.13;;
9972;SDS011;5027;53.560;10.062;2023-05-13T05:54:09;9.77;;;7.60;;
9972;SDS011;5027;53.560;10.062;2023-05-13T05:56:37;8.67;;;6.70;;
9972;SDS011;5027;53.560;10.062;2023-05-13T05:59:04;7.70;;;5.13;;
9972;SDS011;5027;53.560;10.062;2023-05-13T06:01:30;14.83;;;7.27;;
9972;SDS011;5027;53.560;10.062;2023-05-13T06:03:59;11.43;;;7.53;;
9972;SDS011;5027;53.560;10.062;2023-05-13T06:06:26;3.93;;;3.50;;
9972;SDS011;5027;53.560;10.062;2023-05-13T06:08:52;13.10;;;6.80;;
9972;SDS011;5027;53.560;10.062;2023-05-13T06:11:19;9.87;;;6.20;;
9972;SDS011;5027;53.560;10.062;2023-05-13T06:13:46;8.83;;;6.63;;
9972;SDS011;5027;53.560;10.062;2023-05-13T06:16:13;9.50;;;5.80;;
9972;SDS011;5027;53.560;10.062;2023-05-13T06:18:40;9.57;;;6.67;;
9972;SDS011;5027;53.560;10.062;2023-05-13T06:21:08;3.30;;;3.00;;
9972;SDS011;5027;53.560;10.062;2023-05-13T06:23:35;3.00;;;2.80;;
9972;SDS011;5027;53.560;10.062;2023-05-13T06:26:01;4.97;;;3.87;;
9972;SDS011;5027;53.560;10.062;2023-05-13T06:28:28;3.00;;;2.80;;
9972;SDS011;5027;53.560;10.062;2023-05-13T06:30:55;3.73;;;3.43;;
9972;SDS011;5027;53.560;10.062;2023-05-13T06:33:22;12.60;;;6.37;;
9972;SDS011;5027;53.560;10.062;2023-05-13T06:35:49;2.97;;;2.77;;
9972;SDS011;5027;53.560;10.062;2023-05-13T06:38:19;2.70;;;2.50;;
9972;SDS011;5027;53.560;10.062;2023-05-13T06:40:47;3.97;;;3.67;;
9972;SDS011;5027;53.560;10.062;2023-05-13T06:43:15;2.73;;;2.53;;
9972;SDS011;5027;53.560;10.062;2023-05-13T06:45:46;3.37;;;3.07;;
9972;SDS011;5027;53.560;10.062;2023-05-13T06:48:13;6.50;;;5.43;;
9972;SDS011;5027;53.560;10.062;2023-05-13T06:50:41;3.37;;;2.97;;
9972;SDS011;5027;53.560;10.062;2023-05-13T06:53:08;2.73;;;2.53;;
9972;SDS011;5027;53.560;10.062;2023-05-13T06:55:36;8.67;;;5.27;;
9972;SDS011;5027;53.560;10.062;2023-05-13T06:58:07;6.20;;;4.90;;
9972;SDS011;5027;53.560;10.062;2023-05-13T07:00:37;7.23;;;5.40;;
9972;SDS011;5027;53.560;10.062;2023-05-13T07:03:05;3.23;;;2.93;;
9972;SDS011;5027;53.560;10.062;2023-05-13T07:05:32;3.10;;;2.90;;
9972;SDS011;5027;53.560;10.062;2023-05-13T07:08:00;5.33;;;4.33;;
9972;SDS011;5027;53.560;10.062;2023-05-13T07:10:32;6.40;;;4.50;;
9972;SDS011;5027;53.560;10.062;2023-05-13T07:12:59;9.20;;;5.40;;
9972;SDS011;5027;53.560;10.062;2023-05-13T07:15:27;11.17;;;5.03;;
9972;SDS011;5027;53.560;10.062;2023-05-13T07:17:54;3.03;;;2.83;;
9972;SDS011;5027;53.560;10.062;2023-05-13T07:20:21;2.97;;;2.77;;
9972;SDS011;5027;53.560;10.062;2023-05-13T07:22:48;2.93;;;2.73;;
9972;SDS011;5027;53.560;10.062;2023-05-13T07:25:16;2.50;;;2.30;;
9972;SDS011;5027;53.560;10.062;2023-05-13T07:27:44;2.90;;;2.70;;
9972;SDS011;5027;53.560;10.062;2023-05-13T07:30:10;2.73;;;2.53;;
9972;SDS011;5027;53.560;10.062;2023-05-13T07:32:38;2.90;;;2.70;;
9972;SDS011;5027;53.560;10.062;2023-05-13T07:35:05;2.30;;;2.20;;
9972;SDS011;5027;53.560;10.062;2023-05-13T07:37:32;7.27;;;5.33;;
9972;SDS011;5027;53.560;10.062;2023-05-13T07:39:59;5.43;;;3.40;;
9972;SDS011;5027;53.560;10.062;2023-05-13T07:42:26;2.80;;;2.60;;
9972;SDS011;5027;53.560;10.062;2023-05-13T07:44:54;2.97;;;2.77;;
9972;SDS011;5027;53.560;10.062;2023-05-13T07:47:21;10.63;;;4.97;;
9972;SDS011;5027;53.560;10.062;2023-05-13T07:49:49;3.87;;;3.17;;
9972;SDS011;5027;53.560;10.062;2023-05-13T07:52:16;3.33;;;3.03;;
9972;SDS011;5027;53.560;10.062;2023-05-13T07:54:43;3.87;;;3.50;;
9972;SDS011;5027;53.560;10.062;2023-05-13T07:57:09;2.90;;;2.70;;
9972;SDS011;5027;53.560;10.062;2023-05-13T07:59:36;2.93;;;2.73;;
9972;SDS011;5027;53.560;10.062;2023-05-13T08:02:03;2.53;;;2.33;;
9972;SDS011;5027;53.560;10.062;2023-05-13T08:04:30;3.03;;;2.83;;
9972;SDS011;5027;53.560;10.062;2023-05-13T08:06:56;5.40;;;4.67;;
9972;SDS011;5027;53.560;10.062;2023-05-13T08:09:23;6.73;;;4.23;;
9972;SDS011;5027;53.560;10.062;2023-05-13T08:11:50;2.53;;;2.37;;
9972;SDS011;5027;53.560;10.062;2023-05-13T08:14:16;7.70;;;4.20;;
9972;SDS011;5027;53.560;10.062;2023-05-13T08:16:43;2.93;;;2.73;;
9972;SDS011;5027;53.560;10.062;2023-05-13T08:19:10;6.83;;;4.47;;
9972;SDS011;5027;53.560;10.062;2023-05-13T08:21:39;9.20;;;4.43;;
9972;SDS011;5027;53.560;10.062;2023-05-13T08:24:06;9.17;;;4.20;;
9972;SDS011;5027;53.560;10.062;2023-05-13T08:26:33;7.90;;;3.90;;
9972;SDS011;5027;53.560;10.062;2023-05-13T08:28:59;7.47;;;4.03;;
9972;SDS011;5027;53.560;10.062;2023-05-13T08:31:26;7.73;;;4.33;;
9972;SDS011;5027;53.560;10.062;2023-05-13T08:33:53;7.70;;;3.67;;
9972;SDS011;5027;53.560;10.062;2023-05-13T08:36:20;12.77;;;4.53;;
9972;SDS011;5027;53.560;10.062;2023-05-13T08:38:51;7.83;;;4.50;;
9972;SDS011;5027;53.560;10.062;2023-05-13T08:41:18;8.70;;;4.50;;
9972;SDS011;5027;53.560;10.062;2023-05-13T08:43:47;5.73;;;4.10;;
9972;SDS011;5027;53.560;10.062;2023-05-13T08:46:16;5.67;;;4.10;;
9972;SDS011;5027;53.560;10.062;2023-05-13T08:48:44;9.17;;;4.67;;
9972;SDS011;5027;53.560;10.062;2023-05-13T08:51:12;7.30;;;4.57;;
9972;SDS011;5027;53.560;10.062;2023-05-13T08:53:38;6.30;;;4.10;;
9972;SDS011;5027;53.560;10.062;2023-05-13T08:56:09;5.57;;;3.67;;
9972;SDS011;5027;53.560;10.062;2023-05-13T08:58:35;8.33;;;3.70;;
9972;SDS011;5027;53.560;10.062;2023-05-13T09:01:02;10.80;;;4.50;;
9972;SDS011;5027;53.560;10.062;2023-05-13T09:03:30;6.03;;;4.10;;
9972;SDS011;5027;53.560;10.062;2023-05-13T09:06:00;7.50;;;3.87;;
9972;SDS011;5027;53.560;10.062;2023-05-13T09:08:28;8.20;;;4.07;;
9972;SDS011;5027;53.560;10.062;2023-05-13T09:10:55;7.00;;;4.63;;
9972;SDS011;5027;53.560;10.062;2023-05-13T09:13:22;5.30;;;3.23;;
9972;SDS011;5027;53.560;10.062;2023-05-13T09:15:49;8.43;;;3.83;;
9972;SDS011;5027;53.560;10.062;2023-05-13T09:18:17;6.00;;;4.03;;
9972;SDS011;5027;53.560;10.062;2023-05-13T09:20:44;7.00;;;4.10;;
9972;SDS011;5027;53.560;10.062;2023-05-13T09:23:11;9.00;;;3.70;;
9972;SDS011;5027;53.560;10.062;2023-05-13T09:25:38;6.10;;;3.97;;
9972;SDS011;5027;53.560;10.062;2023-05-13T09:28:06;8.87;;;4.10;;
9972;SDS011;5027;53.560;10.062;2023-05-13T09:30:34;7.73;;;4.23;;
9972;SDS011;5027;53.560;10.062;2023-05-13T09:33:06;7.27;;;4.00;;
9972;SDS011;5027;53.560;10.062;2023-05-13T09:35:38;4.93;;;3.90;;
9972;SDS011;5027;53.560;10.062;2023-05-13T09:38:24;4.97;;;3.50;;
9972;SDS011;5027;53.560;10.062;2023-05-13T09:40:53;5.43;;;3.97;;
9972;SDS011;5027;53.560;10.062;2023-05-13T09:43:22;6.70;;;3.53;;
9972;SDS011;5027;53.560;10.062;2023-05-13T09:46:02;8.30;;;4.13;;
9972;SDS011;5027;53.560;10.062;2023-05-13T09:48:30;5.87;;;4.30;;
9972;SDS011;5027;53.560;10.062;2023-05-13T09:50:58;9.00;;;4.17;;
9972;SDS011;5027;53.560;10.062;2023-05-13T09:53:26;6.33;;;3.83;;
9972;SDS011;5027;53.560;10.062;2023-05-13T09:55:54;7.87;;;3.53;;
9972;SDS011;5027;53.560;10.062;2023-05-13T09:58:22;9.87;;;4.10;;
9972;SDS011;5027;53.560;10.062;2023-05-13T10:00:50;6.63;;;4.00;;
9972;SDS011;5027;53.560;10.062;2023-05-13T10:03:18;8.33;;;3.70;;
9972;SDS011;5027;53.560;10.062;2023-05-13T10:05:45;8.77;;;3.67;;
9972;SDS011;5027;53.560;10.062;2023-05-13T10:08:13;7.23;;;4.00;;
9972;SDS011;5027;53.560;10.062;2023-05-13T10:10:41;8.53;;;3.87;;
9972;SDS011;5027;53.560;10.062;2023-05-13T10:13:11;8.80;;;3.50;;
9972;SDS011;5027;53.560;10.062;2023-05-13T10:15:51;6.70;;;3.70;;
9972;SDS011;5027;53.560;10.062;2023-05-13T10:18:19;5.47;;;3.90;;
9972;SDS011;5027;53.560;10.062;2023-05-13T10:20:47;4.27;;;3.13;;
9972;SDS011;5027;53.560;10.062;2023-05-13T10:23:19;5.37;;;3.83;;
9972;SDS011;5027;53.560;10.062;2023-05-13T10:25:46;8.03;;;3.90;;
9972;SDS011;5027;53.560;10.062;2023-05-13T10:28:13;9.07;;;3.93;;
9972;SDS011;5027;53.560;10.062;2023-05-13T10:30:41;10.37;;;7.20;;
9972;SDS011;5027;53.560;10.062;2023-05-13T10:33:09;7.20;;;3.97;;
9972;SDS011;5027;53.560;10.062;2023-05-13T10:35:37;5.10;;;3.93;;
9972;SDS011;5027;53.560;10.062;2023-05-13T10:38:14;4.80;;;3.80;;
9972;SDS011;5027;53.560;10.062;2023-05-13T10:43:28;7.20;;;3.37;;
9972;SDS011;5027;53.560;10.062;2023-05-13T10:45:57;4.90;;;3.93;;
9972;SDS011;5027;53.560;10.062;2023-05-13T10:51:12;4.37;;;3.60;;
9972;SDS011;5027;53.560;10.062;2023-05-13T10:53:50;5.40;;;3.13;;
9972;SDS011;5027;53.560;10.062;2023-05-13T10:56:19;7.17;;;3.63;;
9972;SDS011;5027;53.560;10.062;2023-05-13T10:59:01;5.60;;;3.63;;
9972;SDS011;5027;53.560;10.062;2023-05-13T11:01:33;10.17;;;4.13;;
9972;SDS011;5027;53.560;10.062;2023-05-13T11:04:02;5.63;;;3.13;;
9972;SDS011;5027;53.560;10.062;2023-05-13T11:06:36;7.60;;;3.30;;
9972;SDS011;5027;53.560;10.062;2023-05-13T11:09:05;4.83;;;3.47;;
9972;SDS011;5027;53.560;10.062;2023-05-13T11:11:33;6.87;;;3.27;;
9972;SDS011;5027;53.560;10.062;2023-05-13T11:14:01;7.37;;;3.43;;
9972;SDS011;5027;53.560;10.062;2023-05-13T11:19:44;4.53;;;3.50;;
9972;SDS011;5027;53.560;10.062;2023-05-13T11:22:30;11.93;;;3.90;;
9972;SDS011;5027;53.560;10.062;2023-05-13T11:25:03;8.57;;;3.60;;
9972;SDS011;5027;53.560;10.062;2023-05-13T11:27:36;12.57;;;3.90;;
9972;SDS011;5027;53.560;10.062;2023-05-13T11:30:05;6.03;;;3.70;;
9972;SDS011;5027;53.560;10.062;2023-05-13T11:37:48;6.43;;;3.80;;
9972;SDS011;5027;53.560;10.062;2023-05-13T11:40:22;4.43;;;3.27;;
9972;SDS011;5027;53.560;10.062;2023-05-13T11:42:50;6.90;;;3.33;;
9972;SDS011;5027;53.560;10.062;2023-05-13T11:45:20;4.53;;;3.33;;
9972;SDS011;5027;53.560;10.062;2023-05-13T11:47:49;4.33;;;3.23;;
9972;SDS011;5027;53.560;10.062;2023-05-13T11:50:18;5.67;;;3.67;;
9972;SDS011;5027;53.560;10.062;2023-05-13T11:52:56;11.90;;;3.27;;
9972;SDS011;5027;53.560;10.062;2023-05-13T11:55:24;6.97;;;4.00;;
9972;SDS011;5027;53.560;10.062;2023-05-13T11:57:52;8.90;;;3.50;;
9972;SDS011;5027;53.560;10.062;2023-05-13T12:00:25;8.77;;;3.43;;
9972;SDS011;5027;53.560;10.062;2023-05-13T12:02:57;7.40;;;3.57;;
9972;SDS011;5027;53.560;10.062;2023-05-13T12:05:25;6.53;;;3.40;;
9972;SDS011;5027;53.560;10.062;2023-05-13T12:07:56;6.47;;;3.63;;
9972;SDS011;5027;53.560;10.062;2023-05-13T12:10:23;9.37;;;3.97;;
9972;SDS011;5027;53.560;10.062;2023-05-13T12:12:51;6.50;;;3.70;;
9972;SDS011;5027;53.560;10.062;2023-05-13T12:15:18;4.57;;;3.30;;
9972;SDS011;5027;53.560;10.062;2023-05-13T12:17:48;4.73;;;2.70;;
9972;SDS011;5027;53.560;10.062;2023-05-13T12:20:15;8.37;;;3.30;;
9972;SDS011;5027;53.560;10.062;2023-05-13T12:30:53;5.93;;;3.40;;
9972;SDS011;5027;53.560;10.062;2023-05-13T12:39:00;5.97;;;3.30;;
9972;SDS011;5027;53.560;10.062;2023-05-13T12:41:29;5.73;;;3.20;;
9972;SDS011;5027;53.560;10.062;2023-05-13T12:46:28;4.30;;;3.23;;
9972;SDS011;5027;53.560;10.062;2023-05-13T12:48:56;6.60;;;3.77;;
9972;SDS011;5027;53.560;10.062;2023-05-13T12:51:24;6.13;;;3.57;;
9972;SDS011;5027;53.560;10.062;2023-05-13T12:53:51;6.37;;;3.60;;
9972;SDS011;5027;53.560;10.062;2023-05-13T12:56:20;4.47;;;3.17;;
9972;SDS011;5027;53.560;10.062;2023-05-13T12:58:48;6.30;;;3.47;;
9972;SDS011;5027;53.560;10.062;2023-05-13T13:01:16;4.03;;;3.07;;
9972;SDS011;5027;53.560;10.062;2023-05-13T13:03:48;5.30;;;3.40;;
9972;SDS011;5027;53.560;10.062;2023-05-13T13:06:15;5.73;;;3.17;;
9972;SDS011;5027;53.560;10.062;2023-05-13T13:08:42;7.67;;;3.40;;
9972;SDS011;5027;53.560;10.062;2023-05-13T13:11:09;4.97;;;3.37;;
9972;SDS011;5027;53.560;10.062;2023-05-13T13:13:39;4.83;;;3.00;;
9972;SDS011;5027;53.560;10.062;2023-05-13T13:16:08;4.10;;;3.37;;
9972;SDS011;5027;53.560;10.062;2023-05-13T13:18:35;3.60;;;3.23;;
9972;SDS011;5027;53.560;10.062;2023-05-13T13:21:02;4.07;;;3.10;;
9972;SDS011;5027;53.560;10.062;2023-05-13T13:23:30;9.20;;;3.37;;
9972;SDS011;5027;53.560;10.062;2023-05-13T13:25:57;8.10;;;3.27;;
9972;SDS011;5027;53.560;10.062;2023-05-13T13:28:26;5.37;;;3.37;;
9972;SDS011;5027;53.560;10.062;2023-05-13T13:30:53;4.50;;;3.30;;
9972;SDS011;5027;53.560;10.062;2023-05-13T13:33:20;4.37;;;3.00;;
9972;SDS011;5027;53.560;10.062;2023-05-13T13:35:47;5.67;;;2.80;;
9972;SDS011;5027;53.560;10.062;2023-05-13T13:38:14;5.17;;;3.30;;
9972;SDS011;5027;53.560;10.062;2023-05-13T13:40:41;3.30;;;3.00;;
9972;SDS011;5027;53.560;10.062;2023-05-13T13:43:08;6.43;;;3.03;;
9972;SDS011;5027;53.560;10.062;2023-05-13T13:45:35;4.60;;;3.37;;
9972;SDS011;5027;53.560;10.062;2023-05-13T13:48:02;3.53;;;3.00;;
9972;SDS011;5027;53.560;10.062;2023-05-13T13:50:29;4.60;;;3.13;;
9972;SDS011;5027;53.560;10.062;2023-05-13T13:52:56;5.23;;;3.13;;
9972;SDS011;5027;53.560;10.062;2023-05-13T13:55:22;3.33;;;3.00;;
9972;SDS011;5027;53.560;10.062;2023-05-13T13:57:49;4.30;;;2.77;;
9972;SDS011;5027;53.560;10.062;2023-05-13T14:00:23;5.20;;;3.10;;
9972;SDS011;5027;53.560;10.062;2023-05-13T14:02:50;5.47;;;3.23;;
9972;SDS011;5027;53.560;10.062;2023-05-13T14:05:17;5.97;;;2.90;;
9972;SDS011;5027;53.560;10.062;2023-05-13T14:07:44;3.27;;;2.80;;
9972;SDS011;5027;53.560;10.062;2023-05-13T14:10:13;5.60;;;2.90;;
9972;SDS011;5027;53.560;10.062;2023-05-13T14:12:40;3.00;;;2.70;;
9972;SDS011;5027;53.560;10.062;2023-05-13T14:15:07;6.60;;;3.27;;
9972;SDS011;5027;53.560;10.062;2023-05-13T14:17:33;6.03;;;2.50;;
9972;SDS011;5027;53.560;10.062;2023-05-13T14:20:00;4.53;;;3.13;;
9972;SDS011;5027;53.560;10.062;2023-05-13T14:22:27;6.70;;;4.10;;
9972;SDS011;5027;53.560;10.062;2023-05-13T14:24:54;15.57;;;14.03;;
9972;SDS011;5027;53.560;10.062;2023-05-13T14:27:21;3.30;;;2.67;;
9972;SDS011;5027;53.560;10.062;2023-05-13T14:29:49;6.90;;;2.80;;
9972;SDS011;5027;53.560;10.062;2023-05-13T14:32:17;4.23;;;3.80;;
9972;SDS011;5027;53.560;10.062;2023-05-13T14:34:44;4.17;;;2.90;;
9972;SDS011;5027;53.560;10.062;2023-05-13T14:37:11;4.40;;;2.97;;
9972;SDS011;5027;53.560;10.062;2023-05-13T14:39:37;5.20;;;3.07;;
9972;SDS011;5027;53.560;10.062;2023-05-13T14:42:05;6.20;;;3.50;;
9972;SDS011;5027;53.560;10.062;2023-05-13T14:44:32;8.23;;;4.03;;
9972;SDS011;5027;53.560;10.062;2023-05-13T14:46:59;11.93;;;3.37;;
9972;SDS011;5027;53.560;10.062;2023-05-13T14:49:26;6.00;;;2.77;;
9972;SDS011;5027;53.560;10.062;2023-05-13T14:51:53;3.67;;;2.73;;
9972;SDS011;5027;53.560;10.062;2023-05-13T14:54:20;3.43;;;2.90;;
9972;SDS011;5027;53.560;10.062;2023-05-13T14:56:50;6.93;;;3.10;;
9972;SDS011;5027;53.560;10.062;2023-05-13T14:59:17;4.80;;;3.50;;
9972;SDS011;5027;53.560;10.062;2023-05-13T15:01:44;4.37;;;2.97;;
9972;SDS011;5027;53.560;10.062;2023-05-13T15:04:11;9.13;;;8.10;;
9972;SDS011;5027;53.560;10.062;2023-05-13T15:06:37;10.73;;;3.87;;
9972;SDS011;5027;53.560;10.062;2023-05-13T15:09:04;5.30;;;3.47;;
9972;SDS011;5027;53.560;10.062;2023-05-13T15:11:31;3.20;;;2.60;;
9972;SDS011;5027;53.560;10.062;2023-05-13T15:13:58;3.23;;;2.70;;
9972;SDS011;5027;53.560;10.062;2023-05-13T15:16:26;4.00;;;2.90;;
9972;SDS011;5027;53.560;10.062;2023-05-13T15:18:53;3.97;;;3.13;;
9972;SDS011;5027;53.560;10.062;2023-05-13T15:21:20;4.83;;;3.00;;
9972;SDS011;5027;53.560;10.062;2023-05-13T15:23:47;6.00;;;3.10;;
9972;SDS011;5027;53.560;10.062;2023-05-13T15:26:13;4.63;;;2.97;;
9972;SDS011;5027;53.560;10.062;2023-05-13T15:28:40;4.90;;;2.77;;
9972;SDS011;5027;53.560;10.062;2023-05-13T15:31:07;3.20;;;2.57;;
9972;SDS011;5027;53.560;10.062;2023-05-13T15:33:34;4.27;;;2.90;;
9972;SDS011;5027;53.560;10.062;2023-05-13T15:36:01;3.97;;;3.17;;
9972;SDS011;5027;53.560;10.062;2023-05-13T15:38:28;6.13;;;3.90;;
9972;SDS011;5027;53.560;10.062;2023-05-13T15:40:55;4.87;;;3.53;;